This is the latest recevied weather packets stored in our database for station/object WX3I. If no packets are shown the sender has not sent any weather packets the latest 10 day(s).
| Time | Temp. | Humidity | Pressure | Rain* | Wind** | Luminosity | Snow |
|---|---|---|---|---|---|---|---|
| 1778007005 | 26.67° C | 37% | 1011 hPa | 0 mm | - | 1109 W/m² | - |
| 1778005804 | 26.11° C | 40% | 1011.3 hPa | 0 mm | - | 1146 W/m² | - |
| 1777998304 | 26.11° C | 43% | 1012.1 hPa | 0 mm | - | 1141 W/m² | - |
| 1777998005 | 25.56° C | 41% | 1012.2 hPa | 0 mm | - | 1132 W/m² | - |
| 1777996504 | 26.11° C | 42% | 1012.4 hPa | 0 mm | - | 1080 W/m² | - |
| 1777996205 | 26.11° C | 41% | 1012.5 hPa | 0 mm | - | 1068 W/m² | - |
| 1777993804 | 25° C | 43% | 1012.6 hPa | 0 mm | - | 954 W/m² | - |
| 1777992604 | 24.44° C | 43% | 1012.6 hPa | 0 mm | - | 887 W/m² | - |
| 1777990504 | 23.33° C | 46% | 1012.8 hPa | 0 mm | - | 758 W/m² | - |
| 1777986904 | 20.56° C | 52% | 1013.4 hPa | 0 mm | - | 522 W/m² | - |
| 1777986304 | 19.44° C | 55% | 1013.5 hPa | 0 mm | - | 482 W/m² | - |
| 1777978205 | 15.56° C | 67% | 1012.6 hPa | 0 mm | - | 27 W/m² | - |
| 1777977004 | 15.56° C | 66% | 1012.5 hPa | 0 mm | - | 24 W/m² | - |
| 1777976404 | 15.56° C | 66% | 1012.5 hPa | 0 mm | - | 16 W/m² | - |
| 1777975204 | 15.56° C | 65% | 1012.2 hPa | 0 mm | - | 4 W/m² | - |
| 1777974304 | 15.56° C | 65% | 1012 hPa | 0 mm | - | 0 W/m² | - |
| 1777974004 | 15.56° C | 64% | 1012 hPa | 0 mm | - | 0 W/m² | - |
| 1777972804 | 15.56° C | 65% | 1012 hPa | 0 mm | - | 0 W/m² | - |
| 1777970704 | 16.11° C | 63% | 1011.8 hPa | 0 mm | - | 0 W/m² | - |
| 1777970404 | 15.56° C | 63% | 1011.8 hPa | 0 mm | - | 0 W/m² | - |
| 1777969804 | 15.56° C | 64% | 1012.1 hPa | 0 mm | - | 0 W/m² | - |
| 1777968004 | 16.11° C | 63% | 1011.9 hPa | 0 mm | - | 0 W/m² | - |
| 1777967704 | 16.11° C | 62% | 1011.9 hPa | 0 mm | - | 0 W/m² | - |
| 1777967404 | 16.67° C | 61% | 1012 hPa | 0 mm | - | 0 W/m² | - |
| 1777965904 | 16.67° C | 59% | 1011.9 hPa | 0 mm | - | 0 W/m² | - |
* Rain latest hour (hover to see other rain measurements)
** Current wind speed in m/s (hover to see current wind gust speed)